sensor_id;sensor_type;location;lat;lon;timestamp;pressure;altitude;pressure_sealevel;temperature
14666;BMP280;7420;53.574;10.040;2023-11-19T00:02:07;54227.25;;;-136.87
14666;BMP280;7420;53.574;10.040;2023-11-19T00:04:36;54227.25;;;-136.87
14666;BMP280;7420;53.574;10.040;2023-11-19T00:07:01;54225.19;;;-136.87
14666;BMP280;7420;53.574;10.040;2023-11-19T00:09:29;9377.25;;;-136.87
14666;BMP280;7420;53.574;10.040;2023-11-19T00:11:54;9375.25;;;-136.87
14666;BMP280;7420;53.574;10.040;2023-11-19T00:14:20;9377.25;;;-136.87
14666;BMP280;7420;53.574;10.040;2023-11-19T00:16:46;9371.22;;;-136.87
14666;BMP280;7420;53.574;10.040;2023-11-19T00:19:11;9411.44;;;-136.87
14666;BMP280;7420;53.574;10.040;2023-11-19T00:21:37;9399.38;;;-136.87
14666;BMP280;7420;53.574;10.040;2023-11-19T00:24:02;9369.22;;;-136.87
14666;BMP280;7420;53.574;10.040;2023-11-19T00:26:29;9339.06;;;-136.87
14666;BMP280;7420;53.574;10.040;2023-11-19T00:28:56;9341.09;;;-136.87
14666;BMP280;7420;53.574;10.040;2023-11-19T00:31:22;9359.19;;;-136.87
14666;BMP280;7420;53.574;10.040;2023-11-19T00:33:47;9371.22;;;-136.87
14666;BMP280;7420;53.574;10.040;2023-11-19T00:36:13;9318.97;;;-136.87
14666;BMP280;7420;53.574;10.040;2023-11-19T00:38:38;9347.13;;;-136.87
14666;BMP280;7420;53.574;10.040;2023-11-19T00:41:04;9347.13;;;-136.87
14666;BMP280;7420;53.574;10.040;2023-11-19T00:43:29;9351.13;;;-136.87
14666;BMP280;7420;53.574;10.040;2023-11-19T00:45:54;9351.13;;;-136.87
14666;BMP280;7420;53.574;10.040;2023-11-19T00:48:20;9335.06;;;-136.87
14666;BMP280;7420;53.574;10.040;2023-11-19T00:50:45;9351.13;;;-136.87
14666;BMP280;7420;53.574;10.040;2023-11-19T00:53:11;9321.00;;;-136.87
14666;BMP280;7420;53.574;10.040;2023-11-19T00:55:36;9292.84;;;-136.87
14666;BMP280;7420;53.574;10.040;2023-11-19T00:58:02;9286.81;;;-136.87
14666;BMP280;7420;53.574;10.040;2023-11-19T01:00:28;9333.03;;;-136.87
14666;BMP280;7420;53.574;10.040;2023-11-19T01:02:53;9270.75;;;-136.87
14666;BMP280;7420;53.574;10.040;2023-11-19T01:05:20;9294.88;;;-136.87
14666;BMP280;7420;53.574;10.040;2023-11-19T01:07:49;9321.00;;;-136.87
14666;BMP280;7420;53.574;10.040;2023-11-19T01:10:15;9302.91;;;-136.87
14666;BMP280;7420;53.574;10.040;2023-11-19T01:12:43;9246.63;;;-136.87
14666;BMP280;7420;53.574;10.040;2023-11-19T01:15:09;9292.84;;;-136.87
14666;BMP280;7420;53.574;10.040;2023-11-19T01:17:36;9286.81;;;-136.87
14666;BMP280;7420;53.574;10.040;2023-11-19T01:20:02;9220.50;;;-136.87
14666;BMP280;7420;53.574;10.040;2023-11-19T01:22:28;9248.66;;;-136.87
14666;BMP280;7420;53.574;10.040;2023-11-19T01:24:54;9280.78;;;-136.87
14666;BMP280;7420;53.574;10.040;2023-11-19T01:27:19;9272.75;;;-136.87
14666;BMP280;7420;53.574;10.040;2023-11-19T01:29:45;9256.69;;;-136.87
14666;BMP280;7420;53.574;10.040;2023-11-19T01:32:10;9194.38;;;-136.87
14666;BMP280;7420;53.574;10.040;2023-11-19T01:34:37;9202.41;;;-136.87
14666;BMP280;7420;53.574;10.040;2023-11-19T01:37:03;9180.31;;;-136.87
14666;BMP280;7420;53.574;10.040;2023-11-19T01:39:28;9246.63;;;-136.87
14666;BMP280;7420;53.574;10.040;2023-11-19T01:41:54;9210.47;;;-136.87
14666;BMP280;7420;53.574;10.040;2023-11-19T01:44:19;9210.47;;;-136.87
14666;BMP280;7420;53.574;10.040;2023-11-19T01:46:46;9220.50;;;-136.87
14666;BMP280;7420;53.574;10.040;2023-11-19T01:49:16;9184.34;;;-136.87
14666;BMP280;7420;53.574;10.040;2023-11-19T01:51:43;9172.28;;;-136.87
14666;BMP280;7420;53.574;10.040;2023-11-19T01:54:08;9170.28;;;-136.87
14666;BMP280;7420;53.574;10.040;2023-11-19T01:56:35;9174.28;;;-136.87
14666;BMP280;7420;53.574;10.040;2023-11-19T01:59:01;9194.38;;;-136.87
14666;BMP280;7420;53.574;10.040;2023-11-19T02:01:27;9202.41;;;-136.87
14666;BMP280;7420;53.574;10.040;2023-11-19T02:03:53;9176.31;;;-136.87
14666;BMP280;7420;53.574;10.040;2023-11-19T02:06:18;9156.19;;;-136.87
14666;BMP280;7420;53.574;10.040;2023-11-19T02:08:43;9170.28;;;-136.87
14666;BMP280;7420;53.574;10.040;2023-11-19T02:11:09;9148.16;;;-136.87
14666;BMP280;7420;53.574;10.040;2023-11-19T02:13:37;9182.31;;;-136.87
14666;BMP280;7420;53.574;10.040;2023-11-19T02:16:03;9154.19;;;-136.87
14666;BMP280;7420;53.574;10.040;2023-11-19T02:18:29;9118.03;;;-136.87
14666;BMP280;7420;53.574;10.040;2023-11-19T02:20:58;9154.19;;;-136.87
14666;BMP280;7420;53.574;10.040;2023-11-19T02:23:28;9138.13;;;-136.87
14666;BMP280;7420;53.574;10.040;2023-11-19T02:26:00;9097.94;;;-136.87
14666;BMP280;7420;53.574;10.040;2023-11-19T02:28:26;9148.16;;;-136.87
14666;BMP280;7420;53.574;10.040;2023-11-19T02:30:52;9109.97;;;-136.87
14666;BMP280;7420;53.574;10.040;2023-11-19T02:33:18;9130.09;;;-136.87
14666;BMP280;7420;53.574;10.040;2023-11-19T02:35:44;9138.13;;;-136.87
14666;BMP280;7420;53.574;10.040;2023-11-19T02:38:09;9130.09;;;-136.87
14666;BMP280;7420;53.574;10.040;2023-11-19T02:40:34;9118.03;;;-136.87
14666;BMP280;7420;53.574;10.040;2023-11-19T02:43:00;9112.00;;;-136.87
14666;BMP280;7420;53.574;10.040;2023-11-19T02:45:26;9105.97;;;-136.87
14666;BMP280;7420;53.574;10.040;2023-11-19T02:47:52;9093.91;;;-136.87
14666;BMP280;7420;53.574;10.040;2023-11-19T02:50:19;9069.78;;;-136.87
14666;BMP280;7420;53.574;10.040;2023-11-19T02:52:51;9061.75;;;-136.87
14666;BMP280;7420;53.574;10.040;2023-11-19T02:55:16;9083.88;;;-136.87
14666;BMP280;7420;53.574;10.040;2023-11-19T02:57:43;9029.59;;;-136.87
14666;BMP280;7420;53.574;10.040;2023-11-19T03:00:17;9049.69;;;-136.87
14666;BMP280;7420;53.574;10.040;2023-11-19T03:02:44;9009.50;;;-136.87
14666;BMP280;7420;53.574;10.040;2023-11-19T03:05:12;8965.31;;;-136.87
14666;BMP280;7420;53.574;10.040;2023-11-19T03:07:42;8941.19;;;-136.87
14666;BMP280;7420;53.574;10.040;2023-11-19T03:10:09;8909.03;;;-136.87
14666;BMP280;7420;53.574;10.040;2023-11-19T03:12:38;8874.88;;;-136.87
14666;BMP280;7420;53.574;10.040;2023-11-19T03:15:03;8828.66;;;-136.87
14666;BMP280;7420;53.574;10.040;2023-11-19T03:17:29;8818.63;;;-136.87
14666;BMP280;7420;53.574;10.040;2023-11-19T03:19:54;8810.59;;;-136.87
14666;BMP280;7420;53.574;10.040;2023-11-19T03:22:19;8804.56;;;-136.87
14666;BMP280;7420;53.574;10.040;2023-11-19T03:24:46;8784.47;;;-136.87
14666;BMP280;7420;53.574;10.040;2023-11-19T03:27:11;8748.31;;;-136.87
14666;BMP280;7420;53.574;10.040;2023-11-19T03:29:37;8708.13;;;-136.87
14666;BMP280;7420;53.574;10.040;2023-11-19T03:32:04;8700.06;;;-136.87
14666;BMP280;7420;53.574;10.040;2023-11-19T03:34:29;8692.03;;;-136.87
14666;BMP280;7420;53.574;10.040;2023-11-19T03:36:54;8635.78;;;-136.87
14666;BMP280;7420;53.574;10.040;2023-11-19T03:39:21;8639.81;;;-136.87
14666;BMP280;7420;53.574;10.040;2023-11-19T03:41:49;8631.75;;;-136.87
14666;BMP280;7420;53.574;10.040;2023-11-19T03:44:15;8595.59;;;-136.87
14666;BMP280;7420;53.574;10.040;2023-11-19T03:46:40;8567.47;;;-136.87
14666;BMP280;7420;53.574;10.040;2023-11-19T03:49:06;8549.41;;;-136.87
14666;BMP280;7420;53.574;10.040;2023-11-19T03:51:32;8521.25;;;-136.87
14666;BMP280;7420;53.574;10.040;2023-11-19T03:53:57;8555.41;;;-136.87
14666;BMP280;7420;53.574;10.040;2023-11-19T03:56:23;8535.31;;;-136.87
14666;BMP280;7420;53.574;10.040;2023-11-19T03:58:48;8537.34;;;-136.87
14666;BMP280;7420;53.574;10.040;2023-11-19T04:01:13;8551.41;;;-136.87
14666;BMP280;7420;53.574;10.040;2023-11-19T04:03:39;8525.28;;;-136.87
14666;BMP280;7420;53.574;10.040;2023-11-19T04:06:05;8549.41;;;-136.87
14666;BMP280;7420;53.574;10.040;2023-11-19T04:08:30;8499.16;;;-136.87
14666;BMP280;7420;53.574;10.040;2023-11-19T04:10:56;8481.09;;;-136.87
14666;BMP280;7420;53.574;10.040;2023-11-19T04:13:21;8465.00;;;-136.87
14666;BMP280;7420;53.574;10.040;2023-11-19T04:15:48;8440.91;;;-136.87
14666;BMP280;7420;53.574;10.040;2023-11-19T04:18:13;8402.72;;;-136.87
14666;BMP280;7420;53.574;10.040;2023-11-19T04:20:38;8398.72;;;-136.87
14666;BMP280;7420;53.574;10.040;2023-11-19T04:23:04;8416.78;;;-136.87
14666;BMP280;7420;53.574;10.040;2023-11-19T04:25:29;8372.59;;;-136.87
14666;BMP280;7420;53.574;10.040;2023-11-19T04:27:54;8344.47;;;-136.87
14666;BMP280;7420;53.574;10.040;2023-11-19T04:30:20;8382.66;;;-136.87
14666;BMP280;7420;53.574;10.040;2023-11-19T04:32:45;8386.66;;;-136.87
14666;BMP280;7420;53.574;10.040;2023-11-19T04:35:10;8328.41;;;-136.87
14666;BMP280;7420;53.574;10.040;2023-11-19T04:37:36;8360.53;;;-136.87
14666;BMP280;7420;53.574;10.040;2023-11-19T04:40:03;8334.44;;;-136.87
14666;BMP280;7420;53.574;10.040;2023-11-19T04:42:28;8358.53;;;-136.87
14666;BMP280;7420;53.574;10.040;2023-11-19T04:44:54;8350.50;;;-136.87
14666;BMP280;7420;53.574;10.040;2023-11-19T04:47:20;8300.28;;;-136.87
14666;BMP280;7420;53.574;10.040;2023-11-19T04:49:45;8280.19;;;-136.87
14666;BMP280;7420;53.574;10.040;2023-11-19T04:52:10;8221.94;;;-136.87
14666;BMP280;7420;53.574;10.040;2023-11-19T04:54:46;8258.09;;;-136.87
14666;BMP280;7420;53.574;10.040;2023-11-19T04:57:13;8242.03;;;-136.87
14666;BMP280;7420;53.574;10.040;2023-11-19T04:59:38;8203.84;;;-136.87
14666;BMP280;7420;53.574;10.040;2023-11-19T05:02:04;8161.66;;;-136.87
14666;BMP280;7420;53.574;10.040;2023-11-19T05:04:30;8149.63;;;-136.87
14666;BMP280;7420;53.574;10.040;2023-11-19T05:06:56;8119.47;;;-136.87
14666;BMP280;7420;53.574;10.040;2023-11-19T05:09:21;8107.44;;;-136.87
14666;BMP280;7420;53.574;10.040;2023-11-19T05:11:47;8079.31;;;-136.87
14666;BMP280;7420;53.574;10.040;2023-11-19T05:14:13;8029.09;;;-136.87
14666;BMP280;7420;53.574;10.040;2023-11-19T05:16:40;8021.06;;;-136.87
14666;BMP280;7420;53.574;10.040;2023-11-19T05:19:05;7936.69;;;-136.87
14666;BMP280;7420;53.574;10.040;2023-11-19T05:21:31;7888.47;;;-136.87
14666;BMP280;7420;53.574;10.040;2023-11-19T05:23:56;7888.47;;;-136.87
14666;BMP280;7420;53.574;10.040;2023-11-19T05:26:23;7840.28;;;-136.87
14666;BMP280;7420;53.574;10.040;2023-11-19T05:28:48;7804.13;;;-136.87
14666;BMP280;7420;53.574;10.040;2023-11-19T05:31:16;7778.00;;;-136.87
14666;BMP280;7420;53.574;10.040;2023-11-19T05:33:41;7745.88;;;-136.87
14666;BMP280;7420;53.574;10.040;2023-11-19T05:36:07;7701.69;;;-136.87
14666;BMP280;7420;53.574;10.040;2023-11-19T05:38:36;7649.47;;;-136.87
14666;BMP280;7420;53.574;10.040;2023-11-19T05:41:02;7623.38;;;-136.87
14666;BMP280;7420;53.574;10.040;2023-11-19T05:43:28;7563.13;;;-136.87
14666;BMP280;7420;53.574;10.040;2023-11-19T05:45:53;7528.97;;;-136.87
14666;BMP280;7420;53.574;10.040;2023-11-19T05:48:18;7462.69;;;-136.87
14666;BMP280;7420;53.574;10.040;2023-11-19T05:50:44;7408.47;;;-136.87
14666;BMP280;7420;53.574;10.040;2023-11-19T05:53:10;7388.38;;;-136.87
14666;BMP280;7420;53.574;10.040;2023-11-19T05:55:36;7269.91;;;-136.87
14666;BMP280;7420;53.574;10.040;2023-11-19T05:58:10;7189.59;;;-136.87
14666;BMP280;7420;53.574;10.040;2023-11-19T06:00:37;7067.09;;;-136.87
14666;BMP280;7420;53.574;10.040;2023-11-19T06:03:02;6984.78;;;-136.87
14666;BMP280;7420;53.574;10.040;2023-11-19T06:05:28;6972.72;;;-136.87
14666;BMP280;7420;53.574;10.040;2023-11-19T06:07:53;6733.78;;;-136.87
14666;BMP280;7420;53.574;10.040;2023-11-19T06:10:18;6364.38;;;-136.87
14666;BMP280;7420;53.574;10.040;2023-11-19T06:12:45;5898.69;;;-136.87
14666;BMP280;7420;53.574;10.040;2023-11-19T06:15:11;5569.56;;;-136.87
14666;BMP280;7420;53.574;10.040;2023-11-19T06:17:36;5021.72;;;-136.87
14666;BMP280;7420;53.574;10.040;2023-11-19T06:22:49;4261.38;;;-136.87
14666;BMP280;7420;53.574;10.040;2023-11-19T06:25:15;4038.72;;;-136.87
14666;BMP280;7420;53.574;10.040;2023-11-19T06:27:41;3749.91;;;-136.87
14666;BMP280;7420;53.574;10.040;2023-11-19T06:30:07;3665.69;;;-136.87
14666;BMP280;7420;53.574;10.040;2023-11-19T06:32:32;3561.41;;;-136.87
14666;BMP280;7420;53.574;10.040;2023-11-19T06:34:58;3585.47;;;-136.87
14666;BMP280;7420;53.574;10.040;2023-11-19T06:37:23;3585.47;;;-136.87
14666;BMP280;7420;53.574;10.040;2023-11-19T06:39:49;3551.38;;;-136.87
14666;BMP280;7420;53.574;10.040;2023-11-19T06:42:14;3429.06;;;-136.87
14666;BMP280;7420;53.574;10.040;2023-11-19T06:44:39;3469.16;;;-136.87
14666;BMP280;7420;53.574;10.040;2023-11-19T06:47:05;3292.69;;;-136.87
14666;BMP280;7420;53.574;10.040;2023-11-19T06:49:31;3082.16;;;-136.87
14666;BMP280;7420;53.574;10.040;2023-11-19T06:51:57;3060.09;;;-136.87
14666;BMP280;7420;53.574;10.040;2023-11-19T06:54:22;2961.84;;;-136.87
14666;BMP280;7420;53.574;10.040;2023-11-19T06:56:48;2901.72;;;-136.87
14666;BMP280;7420;53.574;10.040;2023-11-19T06:59:14;3007.97;;;-136.87
14666;BMP280;7420;53.574;10.040;2023-11-19T07:01:39;2795.44;;;-136.87
14666;BMP280;7420;53.574;10.040;2023-11-19T07:04:04;2669.16;;;-136.87
14666;BMP280;7420;53.574;10.040;2023-11-19T07:06:35;2637.06;;;-136.87
14666;BMP280;7420;53.574;10.040;2023-11-19T07:09:01;2598.97;;;-136.87
14666;BMP280;7420;53.574;10.040;2023-11-19T07:11:40;2478.72;;;-136.87
14666;BMP280;7420;53.574;10.040;2023-11-19T07:14:07;2494.75;;;-136.87
14666;BMP280;7420;53.574;10.040;2023-11-19T07:16:33;2510.78;;;-136.87
14666;BMP280;7420;53.574;10.040;2023-11-19T07:21:51;2322.34;;;-136.87
14666;BMP280;7420;53.574;10.040;2023-11-19T07:24:19;2356.44;;;-136.87
14666;BMP280;7420;53.574;10.040;2023-11-19T07:26:46;2412.56;;;-136.87
14666;BMP280;7420;53.574;10.040;2023-11-19T07:29:15;2364.44;;;-136.87
14666;BMP280;7420;53.574;10.040;2023-11-19T07:31:44;2368.47;;;-136.87
14666;BMP280;7420;53.574;10.040;2023-11-19T07:34:10;2396.53;;;-136.87
14666;BMP280;7420;53.574;10.040;2023-11-19T07:36:37;2342.41;;;-136.87
14666;BMP280;7420;53.574;10.040;2023-11-19T07:39:03;2416.56;;;-136.87
14666;BMP280;7420;53.574;10.040;2023-11-19T07:41:30;2424.59;;;-136.87
14666;BMP280;7420;53.574;10.040;2023-11-19T07:43:55;2378.47;;;-136.87
14666;BMP280;7420;53.574;10.040;2023-11-19T07:46:21;2282.25;;;-136.87
14666;BMP280;7420;53.574;10.040;2023-11-19T07:48:46;2280.25;;;-136.87
14666;BMP280;7420;53.574;10.040;2023-11-19T07:51:12;2284.28;;;-136.87
14666;BMP280;7420;53.574;10.040;2023-11-19T07:53:38;2182.03;;;-136.87
14666;BMP280;7420;53.574;10.040;2023-11-19T07:56:04;2218.13;;;-136.87
14666;BMP280;7420;53.574;10.040;2023-11-19T07:58:29;2238.16;;;-136.87
14666;BMP280;7420;53.574;10.040;2023-11-19T08:00:55;2141.97;;;-136.87
14666;BMP280;7420;53.574;10.040;2023-11-19T08:03:20;2105.88;;;-136.87
14666;BMP280;7420;53.574;10.040;2023-11-19T08:05:48;2077.81;;;-136.87
14666;BMP280;7420;53.574;10.040;2023-11-19T08:08:14;2057.78;;;-136.87
14666;BMP280;7420;53.574;10.040;2023-11-19T08:10:40;2059.78;;;-136.87
14666;BMP280;7420;53.574;10.040;2023-11-19T08:13:06;2023.69;;;-136.87
14666;BMP280;7420;53.574;10.040;2023-11-19T08:15:31;1975.59;;;-136.87
14666;BMP280;7420;53.574;10.040;2023-11-19T08:17:56;1955.56;;;-136.87
14666;BMP280;7420;53.574;10.040;2023-11-19T08:20:22;1979.59;;;-136.87
14666;BMP280;7420;53.574;10.040;2023-11-19T08:22:48;1945.53;;;-136.87
14666;BMP280;7420;53.574;10.040;2023-11-19T08:25:14;1881.41;;;-136.87
14666;BMP280;7420;53.574;10.040;2023-11-19T08:27:39;1781.19;;;-136.87
14666;BMP280;7420;53.574;10.040;2023-11-19T08:30:05;1783.19;;;-136.87
14666;BMP280;7420;53.574;10.040;2023-11-19T08:32:31;1759.16;;;-136.87
14666;BMP280;7420;53.574;10.040;2023-11-19T08:34:57;1773.19;;;-136.87
14666;BMP280;7420;53.574;10.040;2023-11-19T08:37:22;1749.13;;;-136.87
14666;BMP280;7420;53.574;10.040;2023-11-19T08:39:48;1703.03;;;-136.87
14666;BMP280;7420;53.574;10.040;2023-11-19T08:42:14;1705.03;;;-136.87
14666;BMP280;7420;53.574;10.040;2023-11-19T08:44:39;1691.00;;;-136.87
14666;BMP280;7420;53.574;10.040;2023-11-19T08:47:08;1687.00;;;-136.87
14666;BMP280;7420;53.574;10.040;2023-11-19T08:49:34;1646.94;;;-136.87
14666;BMP280;7420;53.574;10.040;2023-11-19T08:52:00;1582.81;;;-136.87
14666;BMP280;7420;53.574;10.040;2023-11-19T08:54:25;1624.88;;;-136.87
14666;BMP280;7420;53.574;10.040;2023-11-19T08:56:50;1632.91;;;-136.87
14666;BMP280;7420;53.574;10.040;2023-11-19T08:59:16;1652.94;;;-136.87
14666;BMP280;7420;53.574;10.040;2023-11-19T09:01:41;1628.88;;;-136.87
14666;BMP280;7420;53.574;10.040;2023-11-19T09:04:07;1536.72;;;-136.87
14666;BMP280;7420;53.574;10.040;2023-11-19T09:06:32;1458.56;;;-136.87
14666;BMP280;7420;53.574;10.040;2023-11-19T09:08:58;1436.53;;;-136.87
14666;BMP280;7420;53.574;10.040;2023-11-19T09:11:27;1458.56;;;-136.87
14666;BMP280;7420;53.574;10.040;2023-11-19T09:13:52;1444.53;;;-136.87
14666;BMP280;7420;53.574;10.040;2023-11-19T09:16:18;1392.44;;;-136.87
14666;BMP280;7420;53.574;10.040;2023-11-19T09:18:43;1276.22;;;-136.87
14666;BMP280;7420;53.574;10.040;2023-11-19T09:21:11;1260.19;;;-136.87
14666;BMP280;7420;53.574;10.040;2023-11-19T09:23:36;1143.97;;;-136.87
14666;BMP280;7420;53.574;10.040;2023-11-19T09:26:05;1097.91;;;-136.87
14666;BMP280;7420;53.574;10.040;2023-11-19T09:28:31;1131.94;;;-136.87
14666;BMP280;7420;53.574;10.040;2023-11-19T09:30:56;1119.94;;;-136.87
14666;BMP280;7420;53.574;10.040;2023-11-19T09:33:21;1013.75;;;-136.87
14666;BMP280;7420;53.574;10.040;2023-11-19T09:35:47;987.69;;;-136.87
14666;BMP280;7420;53.574;10.040;2023-11-19T09:38:15;813.41;;;-136.87
14666;BMP280;7420;53.574;10.040;2023-11-19T09:40:40;651.13;;;-136.87
14666;BMP280;7420;53.574;10.040;2023-11-19T09:43:06;641.13;;;-136.87
14666;BMP280;7420;53.574;10.040;2023-11-19T09:45:49;747.28;;;-136.87
14666;BMP280;7420;53.574;10.040;2023-11-19T09:48:19;827.44;;;-136.87
14666;BMP280;7420;53.574;10.040;2023-11-19T09:50:46;831.44;;;-136.87
14666;BMP280;7420;53.574;10.040;2023-11-19T09:53:12;753.31;;;-136.87
14666;BMP280;7420;53.574;10.040;2023-11-19T09:55:38;725.25;;;-136.87
14666;BMP280;7420;53.574;10.040;2023-11-19T09:58:03;719.25;;;-136.87
14666;BMP280;7420;53.574;10.040;2023-11-19T10:00:30;685.19;;;-136.87
14666;BMP280;7420;53.574;10.040;2023-11-19T10:02:56;629.09;;;-136.87
14666;BMP280;7420;53.574;10.040;2023-11-19T10:05:23;488.88;;;-136.87
14666;BMP280;7420;53.574;10.040;2023-11-19T10:07:49;707.22;;;-136.87
14666;BMP280;7420;53.574;10.040;2023-11-19T10:10:15;873.50;;;-136.87
14666;BMP280;7420;53.574;10.040;2023-11-19T10:12:45;973.69;;;-136.87
14666;BMP280;7420;53.574;10.040;2023-11-19T10:15:18;955.66;;;-136.87
14666;BMP280;7420;53.574;10.040;2023-11-19T10:17:44;1035.78;;;-136.87
14666;BMP280;7420;53.574;10.040;2023-11-19T10:20:10;1280.22;;;-136.87
14666;BMP280;7420;53.574;10.040;2023-11-19T10:22:38;1312.28;;;-136.87
14666;BMP280;7420;53.574;10.040;2023-11-19T10:25:21;1364.38;;;-136.87
14666;BMP280;7420;53.574;10.040;2023-11-19T10:30:12;1274.22;;;-136.87
14666;BMP280;7420;53.574;10.040;2023-11-19T10:32:38;1204.09;;;-136.87
14666;BMP280;7420;53.574;10.040;2023-11-19T10:35:06;1198.06;;;-136.87
14666;BMP280;7420;53.574;10.040;2023-11-19T10:37:32;1344.34;;;-136.87
14666;BMP280;7420;53.574;10.040;2023-11-19T10:40:00;1266.19;;;-136.87
14666;BMP280;7420;53.574;10.040;2023-11-19T10:42:26;1324.31;;;-136.87
14666;BMP280;7420;53.574;10.040;2023-11-19T10:44:51;1308.28;;;-136.87
14666;BMP280;7420;53.574;10.040;2023-11-19T10:47:19;1372.41;;;-136.87
14666;BMP280;7420;53.574;10.040;2023-11-19T10:49:45;1338.34;;;-136.87
14666;BMP280;7420;53.574;10.040;2023-11-19T10:52:17;1440.53;;;-136.87
14666;BMP280;7420;53.574;10.040;2023-11-19T10:54:44;1292.25;;;-136.87
14666;BMP280;7420;53.574;10.040;2023-11-19T10:57:12;1079.84;;;-136.87
14666;BMP280;7420;53.574;10.040;2023-11-19T10:59:40;801.38;;;-136.87
14666;BMP280;7420;53.574;10.040;2023-11-19T11:02:09;777.34;;;-136.87
14666;BMP280;7420;53.574;10.040;2023-11-19T11:04:40;879.50;;;-136.87
14666;BMP280;7420;53.574;10.040;2023-11-19T11:07:07;931.59;;;-136.87
14666;BMP280;7420;53.574;10.040;2023-11-19T11:09:34;951.63;;;-136.87
14666;BMP280;7420;53.574;10.040;2023-11-19T11:12:00;991.72;;;-136.87
14666;BMP280;7420;53.574;10.040;2023-11-19T11:14:27;1037.78;;;-136.87
14666;BMP280;7420;53.574;10.040;2023-11-19T11:16:53;1109.91;;;-136.87
14666;BMP280;7420;53.574;10.040;2023-11-19T11:19:19;1137.97;;;-136.87
14666;BMP280;7420;53.574;10.040;2023-11-19T11:21:49;1222.13;;;-136.87
14666;BMP280;7420;53.574;10.040;2023-11-19T11:24:39;1172.03;;;-136.87
14666;BMP280;7420;53.574;10.040;2023-11-19T11:30:35;897.53;;;-136.87
14666;BMP280;7420;53.574;10.040;2023-11-19T11:36:11;995.72;;;-136.87
14666;BMP280;7420;53.574;10.040;2023-11-19T11:38:40;1061.81;;;-136.87
14666;BMP280;7420;53.574;10.040;2023-11-19T11:41:22;1278.22;;;-136.87
14666;BMP280;7420;53.574;10.040;2023-11-19T11:43:50;1119.94;;;-136.87
14666;BMP280;7420;53.574;10.040;2023-11-19T11:49:10;783.34;;;-136.87
14666;BMP280;7420;53.574;10.040;2023-11-19T12:02:08;671.16;;;-136.87
14666;BMP280;7420;53.574;10.040;2023-11-19T12:04:35;412.75;;;-136.87
14666;BMP280;7420;53.574;10.040;2023-11-19T12:07:07;504.91;;;-136.87
14666;BMP280;7420;53.574;10.040;2023-11-19T12:09:33;446.81;;;-136.87
14666;BMP280;7420;53.574;10.040;2023-11-19T12:12:28;428.78;;;-136.87
14666;BMP280;7420;53.574;10.040;2023-11-19T12:19:59;-1315.34;;;-136.87
14666;BMP280;7420;53.574;10.040;2023-11-19T12:22:25;42.22;;;-136.87
14666;BMP280;7420;53.574;10.040;2023-11-19T12:24:52;274.56;;;-136.87
14666;BMP280;7420;53.574;10.040;2023-11-19T12:27:19;386.72;;;-136.87
14666;BMP280;7420;53.574;10.040;2023-11-19T12:29:47;406.75;;;-136.87
14666;BMP280;7420;53.574;10.040;2023-11-19T12:32:12;478.84;;;-136.87
14666;BMP280;7420;53.574;10.040;2023-11-19T12:34:38;420.78;;;-136.87
14666;BMP280;7420;53.574;10.040;2023-11-19T12:37:04;611.06;;;-136.87
14666;BMP280;7420;53.574;10.040;2023-11-19T12:39:30;675.16;;;-136.87
14666;BMP280;7420;53.574;10.040;2023-11-19T12:41:55;663.16;;;-136.87
14666;BMP280;7420;53.574;10.040;2023-11-19T12:44:22;811.41;;;-136.87
14666;BMP280;7420;53.574;10.040;2023-11-19T12:47:05;723.25;;;-136.87
14666;BMP280;7420;53.574;10.040;2023-11-19T12:49:32;450.81;;;-136.87
14666;BMP280;7420;53.574;10.040;2023-11-19T12:51:57;-2486.13;;;-136.87
14666;BMP280;7420;53.574;10.040;2023-11-19T12:54:35;-362.31;;;-136.87
14666;BMP280;7420;53.574;10.040;2023-11-19T12:57:01;482.88;;;-136.87
14666;BMP280;7420;53.574;10.040;2023-11-19T12:59:27;791.38;;;-136.87
14666;BMP280;7420;53.574;10.040;2023-11-19T13:01:59;749.28;;;-136.87
14666;BMP280;7420;53.574;10.040;2023-11-19T13:04:29;262.53;;;-136.87
14666;BMP280;7420;53.574;10.040;2023-11-19T13:06:57;-1407.41;;;-136.87
14666;BMP280;7420;53.574;10.040;2023-11-19T13:11:48;-212.13;;;-136.87
14666;BMP280;7420;53.574;10.040;2023-11-19T13:14:13;142.34;;;-136.87
14666;BMP280;7420;53.574;10.040;2023-11-19T13:16:39;290.56;;;-136.87
14666;BMP280;7420;53.574;10.040;2023-11-19T13:19:04;354.66;;;-136.87
14666;BMP280;7420;53.574;10.040;2023-11-19T13:21:30;296.59;;;-136.87
14666;BMP280;7420;53.574;10.040;2023-11-19T13:23:56;218.47;;;-136.87
14666;BMP280;7420;53.574;10.040;2023-11-19T13:26:21;-626.63;;;-136.87
14666;BMP280;7420;53.574;10.040;2023-11-19T13:28:47;-268.19;;;-136.87
14666;BMP280;7420;53.574;10.040;2023-11-19T13:31:12;218.47;;;-136.87
14666;BMP280;7420;53.574;10.040;2023-11-19T13:33:38;420.78;;;-136.87
14666;BMP280;7420;53.574;10.040;2023-11-19T13:36:04;520.94;;;-136.87
14666;BMP280;7420;53.574;10.040;2023-11-19T13:38:33;601.06;;;-136.87
14666;BMP280;7420;53.574;10.040;2023-11-19T13:41:00;514.91;;;-136.87
14666;BMP280;7420;53.574;10.040;2023-11-19T13:43:26;554.97;;;-136.87
14666;BMP280;7420;53.574;10.040;2023-11-19T13:45:54;605.06;;;-136.87
14666;BMP280;7420;53.574;10.040;2023-11-19T13:48:19;643.13;;;-136.87
14666;BMP280;7420;53.574;10.040;2023-11-19T13:50:45;530.94;;;-136.87
14666;BMP280;7420;53.574;10.040;2023-11-19T13:53:10;665.16;;;-136.87
14666;BMP280;7420;53.574;10.040;2023-11-19T13:55:35;502.91;;;-136.87
14666;BMP280;7420;53.574;10.040;2023-11-19T13:58:01;482.88;;;-136.87
14666;BMP280;7420;53.574;10.040;2023-11-19T14:00:26;-578.59;;;-136.87
14666;BMP280;7420;53.574;10.040;2023-11-19T14:02:52;-298.25;;;-136.87
14666;BMP280;7420;53.574;10.040;2023-11-19T14:07:43;102.31;;;-136.87
14666;BMP280;7420;53.574;10.040;2023-11-19T14:10:09;190.44;;;-136.87
14666;BMP280;7420;53.574;10.040;2023-11-19T14:12:37;42.22;;;-136.87
14666;BMP280;7420;53.574;10.040;2023-11-19T14:15:03;86.28;;;-136.87
14666;BMP280;7420;53.574;10.040;2023-11-19T14:17:30;306.59;;;-136.87
14666;BMP280;7420;53.574;10.040;2023-11-19T14:19:56;444.81;;;-136.87
14666;BMP280;7420;53.574;10.040;2023-11-19T14:22:21;490.88;;;-136.87
14666;BMP280;7420;53.574;10.040;2023-11-19T14:24:47;544.97;;;-136.87
14666;BMP280;7420;53.574;10.040;2023-11-19T14:27:12;669.16;;;-136.87
14666;BMP280;7420;53.574;10.040;2023-11-19T14:29:38;867.50;;;-136.87
14666;BMP280;7420;53.574;10.040;2023-11-19T14:32:05;1250.16;;;-136.87
14666;BMP280;7420;53.574;10.040;2023-11-19T14:34:30;1390.44;;;-136.87